Inglewood, Florida
Current Conditions -  °F | °C
As of 11:15 AM on Thursday 27 Nov 2014 (Local Time) from KVNC Reporting Station
Clear Clear  
Wind Chill: 68°   Ceiling: Unl
Heat Index: 68°   Visibility: 10mi
Dew Point: 48°   Wind: 9mph
Humidity: 49%   Direction: 330°NNW
Pressure: 30.29"   Gusts: NA
Location:  26.9253°N, 82.3009°W
Report Text: KVNC 271615Z AUTO 33008KT 280V340 10SM CLR 20/09 A3029 RMK AO2 TSNO
Loading
Personal Weather Stations






























Interactive Weather Map New forecast layout! Learn more

10-Day Weather Forecast

Advertisements
Track Severe Weather on mobile